KEST

Estherville Municipal Airport

Estherville, Iowa, USA
METAR KEST 192252Z AUTO 15006KT 10SM CLR 24/21 A2987 RMK AO2 LTG DSNT W SLP109 T02440206
Observed Flight Rules
Aug-19 @ 22:52 UTC (15 minutes ago) Visual Flight Rules
Wind Visibility Clouds
150° at 6 knots 10 miles
  • Clear skies
Temperatures Readings
Current 24°C / 75°F
Dewpoint 21°C / 70°F
Humidity 83%
Altimeter 29.87" Hg
Pressure 1010.9 hPa
Elevation 401
METAR KEST 192252Z AUTO 15006KT 10SM CLR 24/21 A2987 RMK AO2 LTG DSNT W SLP109 T02440206
Observed Flight Rules
Aug-19 @ 22:52 UTC
(15 minutes ago)
VFR
Wind Visibility
150° at 6 knots 10 miles
Clouds
  • Clear skies
Temperature Dewpoint
24°C / 75°F 21°C / 70°F
Humidity Altimeter Pressure
83% 29.87" Hg 1010.9 hPa